sensor_id;sensor_type;location;lat;lon;timestamp;P1;durP1;ratioP1;P2;durP2;ratioP2
52956;SDS011;38819;42.692;23.342;2023-07-31T00:00:24;2.92;;;2.47;;
52956;SDS011;38819;42.692;23.342;2023-07-31T00:02:51;2.20;;;2.08;;
52956;SDS011;38819;42.692;23.342;2023-07-31T00:05:17;4.95;;;2.35;;
52956;SDS011;38819;42.692;23.342;2023-07-31T00:07:42;2.88;;;2.53;;
52956;SDS011;38819;42.692;23.342;2023-07-31T00:10:08;2.38;;;2.17;;
52956;SDS011;38819;42.692;23.342;2023-07-31T00:12:33;2.90;;;2.30;;
52956;SDS011;38819;42.692;23.342;2023-07-31T00:14:59;2.30;;;2.10;;
52956;SDS011;38819;42.692;23.342;2023-07-31T00:17:24;2.38;;;2.17;;
52956;SDS011;38819;42.692;23.342;2023-07-31T00:19:50;2.67;;;2.40;;
52956;SDS011;38819;42.692;23.342;2023-07-31T00:22:15;2.70;;;2.40;;
52956;SDS011;38819;42.692;23.342;2023-07-31T00:24:41;2.60;;;2.33;;
52956;SDS011;38819;42.692;23.342;2023-07-31T00:27:06;4.15;;;2.58;;
52956;SDS011;38819;42.692;23.342;2023-07-31T00:29:32;2.40;;;2.20;;
52956;SDS011;38819;42.692;23.342;2023-07-31T00:31:57;2.70;;;2.50;;
52956;SDS011;38819;42.692;23.342;2023-07-31T00:34:23;3.92;;;2.85;;
52956;SDS011;38819;42.692;23.342;2023-07-31T00:36:48;5.90;;;2.63;;
52956;SDS011;38819;42.692;23.342;2023-07-31T00:39:13;3.15;;;2.95;;
52956;SDS011;38819;42.692;23.342;2023-07-31T00:41:39;4.00;;;2.75;;
52956;SDS011;38819;42.692;23.342;2023-07-31T00:44:04;4.53;;;3.13;;
52956;SDS011;38819;42.692;23.342;2023-07-31T00:46:30;5.00;;;2.85;;
52956;SDS011;38819;42.692;23.342;2023-07-31T00:48:56;3.72;;;2.65;;
52956;SDS011;38819;42.692;23.342;2023-07-31T00:51:22;3.55;;;3.25;;
52956;SDS011;38819;42.692;23.342;2023-07-31T00:53:47;3.35;;;3.05;;
52956;SDS011;38819;42.692;23.342;2023-07-31T00:56:13;4.53;;;4.13;;
52956;SDS011;38819;42.692;23.342;2023-07-31T00:58:38;4.40;;;3.72;;
52956;SDS011;38819;42.692;23.342;2023-07-31T01:01:04;4.72;;;4.30;;
52956;SDS011;38819;42.692;23.342;2023-07-31T01:03:30;5.32;;;4.82;;
52956;SDS011;38819;42.692;23.342;2023-07-31T01:11:17;7.13;;;6.28;;
52956;SDS011;38819;42.692;23.342;2023-07-31T01:13:50;10.20;;;6.28;;
52956;SDS011;38819;42.692;23.342;2023-07-31T01:16:15;7.40;;;6.70;;
52956;SDS011;38819;42.692;23.342;2023-07-31T01:18:41;9.32;;;6.53;;
52956;SDS011;38819;42.692;23.342;2023-07-31T01:21:21;10.82;;;7.57;;
52956;SDS011;38819;42.692;23.342;2023-07-31T01:32:28;10.27;;;9.38;;
52956;SDS011;38819;42.692;23.342;2023-07-31T01:34:54;11.25;;;10.23;;
52956;SDS011;38819;42.692;23.342;2023-07-31T01:37:27;10.45;;;9.55;;
52956;SDS011;38819;42.692;23.342;2023-07-31T01:39:54;11.50;;;10.35;;
52956;SDS011;38819;42.692;23.342;2023-07-31T01:42:19;11.98;;;10.77;;
52956;SDS011;38819;42.692;23.342;2023-07-31T01:44:44;13.55;;;12.25;;
52956;SDS011;38819;42.692;23.342;2023-07-31T01:47:10;13.55;;;12.15;;
52956;SDS011;38819;42.692;23.342;2023-07-31T01:49:35;15.10;;;13.68;;
52956;SDS011;38819;42.692;23.342;2023-07-31T01:52:00;16.40;;;14.70;;
52956;SDS011;38819;42.692;23.342;2023-07-31T01:54:26;16.23;;;14.52;;
52956;SDS011;38819;42.692;23.342;2023-07-31T01:56:51;15.45;;;13.85;;
52956;SDS011;38819;42.692;23.342;2023-07-31T01:59:17;16.88;;;15.20;;
52956;SDS011;38819;42.692;23.342;2023-07-31T02:01:42;17.02;;;14.70;;
52956;SDS011;38819;42.692;23.342;2023-07-31T02:04:08;16.55;;;14.95;;
52956;SDS011;38819;42.692;23.342;2023-07-31T02:06:33;16.48;;;14.93;;
52956;SDS011;38819;42.692;23.342;2023-07-31T02:08:59;17.58;;;15.80;;
52956;SDS011;38819;42.692;23.342;2023-07-31T02:11:24;16.70;;;15.07;;
52956;SDS011;38819;42.692;23.342;2023-07-31T02:13:49;18.95;;;15.88;;
52956;SDS011;38819;42.692;23.342;2023-07-31T02:16:15;16.80;;;15.20;;
52956;SDS011;38819;42.692;23.342;2023-07-31T02:18:40;18.58;;;16.77;;
52956;SDS011;38819;42.692;23.342;2023-07-31T02:21:05;16.95;;;15.15;;
52956;SDS011;38819;42.692;23.342;2023-07-31T02:23:31;17.38;;;15.73;;
52956;SDS011;38819;42.692;23.342;2023-07-31T02:25:56;17.60;;;15.80;;
52956;SDS011;38819;42.692;23.342;2023-07-31T02:28:22;18.38;;;16.65;;
52956;SDS011;38819;42.692;23.342;2023-07-31T02:30:47;18.33;;;16.33;;
52956;SDS011;38819;42.692;23.342;2023-07-31T02:33:13;18.75;;;16.73;;
52956;SDS011;38819;42.692;23.342;2023-07-31T02:35:39;21.43;;;16.70;;
52956;SDS011;38819;42.692;23.342;2023-07-31T02:38:05;18.13;;;16.23;;
52956;SDS011;38819;42.692;23.342;2023-07-31T02:40:30;18.95;;;17.05;;
52956;SDS011;38819;42.692;23.342;2023-07-31T02:42:55;18.92;;;17.02;;
52956;SDS011;38819;42.692;23.342;2023-07-31T02:45:21;17.60;;;15.85;;
52956;SDS011;38819;42.692;23.342;2023-07-31T02:47:46;20.17;;;18.10;;
52956;SDS011;38819;42.692;23.342;2023-07-31T02:50:12;18.30;;;16.30;;
52956;SDS011;38819;42.692;23.342;2023-07-31T02:52:37;19.42;;;17.52;;
52956;SDS011;38819;42.692;23.342;2023-07-31T02:55:02;19.05;;;17.05;;
52956;SDS011;38819;42.692;23.342;2023-07-31T02:57:28;18.98;;;17.10;;
52956;SDS011;38819;42.692;23.342;2023-07-31T02:59:53;18.50;;;16.70;;
52956;SDS011;38819;42.692;23.342;2023-07-31T03:02:19;18.95;;;17.10;;
52956;SDS011;38819;42.692;23.342;2023-07-31T03:04:45;19.23;;;17.17;;
52956;SDS011;38819;42.692;23.342;2023-07-31T03:07:10;20.33;;;18.33;;
52956;SDS011;38819;42.692;23.342;2023-07-31T03:09:35;19.75;;;17.85;;
52956;SDS011;38819;42.692;23.342;2023-07-31T03:12:01;19.40;;;17.30;;
52956;SDS011;38819;42.692;23.342;2023-07-31T03:14:26;19.55;;;17.55;;
52956;SDS011;38819;42.692;23.342;2023-07-31T03:16:52;20.45;;;18.17;;
52956;SDS011;38819;42.692;23.342;2023-07-31T03:19:17;20.80;;;18.70;;
52956;SDS011;38819;42.692;23.342;2023-07-31T03:21:43;20.40;;;18.00;;
52956;SDS011;38819;42.692;23.342;2023-07-31T03:24:08;21.15;;;18.88;;
52956;SDS011;38819;42.692;23.342;2023-07-31T03:26:34;22.40;;;18.27;;
52956;SDS011;38819;42.692;23.342;2023-07-31T03:29:00;20.08;;;18.15;;
52956;SDS011;38819;42.692;23.342;2023-07-31T03:31:25;20.50;;;17.92;;
52956;SDS011;38819;42.692;23.342;2023-07-31T03:33:51;20.48;;;18.38;;
52956;SDS011;38819;42.692;23.342;2023-07-31T03:36:16;20.92;;;18.77;;
52956;SDS011;38819;42.692;23.342;2023-07-31T03:38:41;20.98;;;18.80;;
52956;SDS011;38819;42.692;23.342;2023-07-31T03:41:07;19.58;;;17.67;;
52956;SDS011;38819;42.692;23.342;2023-07-31T03:43:33;20.23;;;18.35;;
52956;SDS011;38819;42.692;23.342;2023-07-31T03:46:01;20.08;;;18.13;;
52956;SDS011;38819;42.692;23.342;2023-07-31T03:48:27;21.52;;;19.23;;
52956;SDS011;38819;42.692;23.342;2023-07-31T03:50:53;20.42;;;18.42;;
52956;SDS011;38819;42.692;23.342;2023-07-31T03:53:19;22.75;;;18.63;;
52956;SDS011;38819;42.692;23.342;2023-07-31T03:55:44;22.95;;;19.08;;
52956;SDS011;38819;42.692;23.342;2023-07-31T03:58:10;23.67;;;19.83;;
52956;SDS011;38819;42.692;23.342;2023-07-31T04:00:35;24.42;;;18.52;;
52956;SDS011;38819;42.692;23.342;2023-07-31T04:03:00;20.63;;;18.30;;
52956;SDS011;38819;42.692;23.342;2023-07-31T04:05:26;21.77;;;19.45;;
52956;SDS011;38819;42.692;23.342;2023-07-31T04:07:51;22.05;;;19.73;;
52956;SDS011;38819;42.692;23.342;2023-07-31T04:10:17;22.10;;;19.50;;
52956;SDS011;38819;42.692;23.342;2023-07-31T04:12:43;25.17;;;21.30;;
52956;SDS011;38819;42.692;23.342;2023-07-31T04:15:09;23.02;;;20.58;;
52956;SDS011;38819;42.692;23.342;2023-07-31T04:17:34;22.42;;;20.20;;
52956;SDS011;38819;42.692;23.342;2023-07-31T04:20:00;25.27;;;21.85;;
52956;SDS011;38819;42.692;23.342;2023-07-31T04:22:25;24.20;;;21.67;;
52956;SDS011;38819;42.692;23.342;2023-07-31T04:24:51;24.05;;;21.30;;
52956;SDS011;38819;42.692;23.342;2023-07-31T04:27:16;25.42;;;22.45;;
52956;SDS011;38819;42.692;23.342;2023-07-31T04:29:41;26.98;;;20.67;;
52956;SDS011;38819;42.692;23.342;2023-07-31T04:32:09;23.30;;;20.83;;
52956;SDS011;38819;42.692;23.342;2023-07-31T04:34:34;22.13;;;19.88;;
52956;SDS011;38819;42.692;23.342;2023-07-31T04:37:00;24.75;;;20.42;;
52956;SDS011;38819;42.692;23.342;2023-07-31T04:39:25;23.48;;;21.00;;
52956;SDS011;38819;42.692;23.342;2023-07-31T04:41:50;22.48;;;19.95;;
52956;SDS011;38819;42.692;23.342;2023-07-31T04:44:16;21.85;;;19.55;;
52956;SDS011;38819;42.692;23.342;2023-07-31T04:46:41;20.50;;;18.48;;
52956;SDS011;38819;42.692;23.342;2023-07-31T04:49:06;21.85;;;19.65;;
52956;SDS011;38819;42.692;23.342;2023-07-31T04:51:32;22.13;;;19.65;;
52956;SDS011;38819;42.692;23.342;2023-07-31T04:53:57;21.70;;;18.65;;
52956;SDS011;38819;42.692;23.342;2023-07-31T04:56:23;20.70;;;18.58;;
52956;SDS011;38819;42.692;23.342;2023-07-31T04:58:48;19.08;;;17.17;;
52956;SDS011;38819;42.692;23.342;2023-07-31T05:01:14;23.52;;;18.42;;
52956;SDS011;38819;42.692;23.342;2023-07-31T05:03:39;20.40;;;18.30;;
52956;SDS011;38819;42.692;23.342;2023-07-31T05:06:05;21.85;;;18.63;;
52956;SDS011;38819;42.692;23.342;2023-07-31T05:08:30;19.60;;;17.58;;
52956;SDS011;38819;42.692;23.342;2023-07-31T05:10:55;21.42;;;18.42;;
52956;SDS011;38819;42.692;23.342;2023-07-31T05:13:21;23.58;;;18.35;;
52956;SDS011;38819;42.692;23.342;2023-07-31T05:15:46;19.80;;;17.80;;
52956;SDS011;38819;42.692;23.342;2023-07-31T05:18:14;20.83;;;17.40;;
52956;SDS011;38819;42.692;23.342;2023-07-31T05:20:39;18.30;;;16.40;;
52956;SDS011;38819;42.692;23.342;2023-07-31T05:23:05;17.23;;;15.50;;
52956;SDS011;38819;42.692;23.342;2023-07-31T05:25:30;16.67;;;15.15;;
52956;SDS011;38819;42.692;23.342;2023-07-31T05:27:55;16.58;;;14.45;;
52956;SDS011;38819;42.692;23.342;2023-07-31T05:30:21;17.75;;;15.95;;
52956;SDS011;38819;42.692;23.342;2023-07-31T05:32:46;16.33;;;14.73;;
52956;SDS011;38819;42.692;23.342;2023-07-31T05:35:12;15.57;;;13.98;;
52956;SDS011;38819;42.692;23.342;2023-07-31T05:37:37;14.18;;;12.88;;
52956;SDS011;38819;42.692;23.342;2023-07-31T05:40:03;15.10;;;13.07;;
52956;SDS011;38819;42.692;23.342;2023-07-31T05:42:29;13.25;;;11.95;;
52956;SDS011;38819;42.692;23.342;2023-07-31T05:44:54;12.23;;;11.02;;
52956;SDS011;38819;42.692;23.342;2023-07-31T05:47:19;13.63;;;12.32;;
52956;SDS011;38819;42.692;23.342;2023-07-31T05:49:45;10.85;;;9.75;;
52956;SDS011;38819;42.692;23.342;2023-07-31T05:52:10;12.98;;;9.43;;
52956;SDS011;38819;42.692;23.342;2023-07-31T05:54:36;10.98;;;9.98;;
52956;SDS011;38819;42.692;23.342;2023-07-31T05:57:01;10.05;;;9.02;;
52956;SDS011;38819;42.692;23.342;2023-07-31T05:59:26;9.88;;;8.98;;
52956;SDS011;38819;42.692;23.342;2023-07-31T06:01:52;9.07;;;8.23;;
52956;SDS011;38819;42.692;23.342;2023-07-31T06:04:18;8.70;;;7.82;;
52956;SDS011;38819;42.692;23.342;2023-07-31T06:06:43;8.27;;;7.57;;
52956;SDS011;38819;42.692;23.342;2023-07-31T06:09:08;8.45;;;7.63;;
52956;SDS011;38819;42.692;23.342;2023-07-31T06:11:34;7.85;;;7.20;;
52956;SDS011;38819;42.692;23.342;2023-07-31T06:13:59;8.60;;;6.72;;
52956;SDS011;38819;42.692;23.342;2023-07-31T06:16:25;7.28;;;6.57;;
52956;SDS011;38819;42.692;23.342;2023-07-31T06:18:52;8.48;;;6.60;;
52956;SDS011;38819;42.692;23.342;2023-07-31T06:21:17;7.60;;;6.88;;
52956;SDS011;38819;42.692;23.342;2023-07-31T06:23:42;9.82;;;6.03;;
52956;SDS011;38819;42.692;23.342;2023-07-31T06:26:08;5.95;;;5.45;;
52956;SDS011;38819;42.692;23.342;2023-07-31T06:28:34;6.32;;;5.68;;
52956;SDS011;38819;42.692;23.342;2023-07-31T06:31:00;7.83;;;5.07;;
52956;SDS011;38819;42.692;23.342;2023-07-31T06:33:26;5.00;;;4.50;;
52956;SDS011;38819;42.692;23.342;2023-07-31T06:35:52;5.53;;;4.75;;
52956;SDS011;38819;42.692;23.342;2023-07-31T06:38:24;7.35;;;5.05;;
52956;SDS011;38819;42.692;23.342;2023-07-31T06:40:51;4.80;;;4.40;;
52956;SDS011;38819;42.692;23.342;2023-07-31T06:43:16;5.18;;;4.65;;
52956;SDS011;38819;42.692;23.342;2023-07-31T06:45:41;6.90;;;5.00;;
52956;SDS011;38819;42.692;23.342;2023-07-31T06:48:07;6.00;;;4.63;;
52956;SDS011;38819;42.692;23.342;2023-07-31T06:50:32;5.20;;;4.70;;
52956;SDS011;38819;42.692;23.342;2023-07-31T06:52:58;7.85;;;4.88;;
52956;SDS011;38819;42.692;23.342;2023-07-31T06:55:24;5.22;;;4.72;;
52956;SDS011;38819;42.692;23.342;2023-07-31T06:57:51;9.15;;;4.43;;
52956;SDS011;38819;42.692;23.342;2023-07-31T07:00:18;7.05;;;4.38;;
52956;SDS011;38819;42.692;23.342;2023-07-31T07:02:45;5.22;;;3.85;;
52956;SDS011;38819;42.692;23.342;2023-07-31T07:05:12;4.63;;;3.80;;
52956;SDS011;38819;42.692;23.342;2023-07-31T07:07:38;5.40;;;4.65;;
52956;SDS011;38819;42.692;23.342;2023-07-31T07:10:05;6.50;;;4.20;;
52956;SDS011;38819;42.692;23.342;2023-07-31T07:14:56;4.38;;;3.63;;
52956;SDS011;38819;42.692;23.342;2023-07-31T07:17:29;4.00;;;3.60;;
52956;SDS011;38819;42.692;23.342;2023-07-31T07:19:58;3.75;;;3.45;;
52956;SDS011;38819;42.692;23.342;2023-07-31T07:22:24;3.40;;;3.07;;
52956;SDS011;38819;42.692;23.342;2023-07-31T07:24:50;3.67;;;3.35;;
52956;SDS011;38819;42.692;23.342;2023-07-31T07:27:16;4.07;;;3.28;;
52956;SDS011;38819;42.692;23.342;2023-07-31T07:29:41;5.28;;;3.10;;
52956;SDS011;38819;42.692;23.342;2023-07-31T07:32:07;5.20;;;3.30;;
52956;SDS011;38819;42.692;23.342;2023-07-31T07:34:32;3.88;;;3.38;;
52956;SDS011;38819;42.692;23.342;2023-07-31T07:36:58;4.07;;;3.63;;
52956;SDS011;38819;42.692;23.342;2023-07-31T07:39:23;3.67;;;3.25;;
52956;SDS011;38819;42.692;23.342;2023-07-31T07:41:49;3.97;;;3.38;;
52956;SDS011;38819;42.692;23.342;2023-07-31T07:44:15;4.82;;;3.30;;
52956;SDS011;38819;42.692;23.342;2023-07-31T07:46:40;4.28;;;3.22;;
52956;SDS011;38819;42.692;23.342;2023-07-31T07:49:06;3.70;;;3.40;;
52956;SDS011;38819;42.692;23.342;2023-07-31T07:51:31;13.82;;;3.97;;
52956;SDS011;38819;42.692;23.342;2023-07-31T07:53:57;5.22;;;2.78;;
52956;SDS011;38819;42.692;23.342;2023-07-31T07:56:24;4.32;;;2.85;;
52956;SDS011;38819;42.692;23.342;2023-07-31T07:58:50;3.05;;;2.80;;
52956;SDS011;38819;42.692;23.342;2023-07-31T08:01:16;3.90;;;3.00;;
52956;SDS011;38819;42.692;23.342;2023-07-31T08:03:41;8.25;;;3.22;;
52956;SDS011;38819;42.692;23.342;2023-07-31T08:06:07;4.78;;;3.38;;
52956;SDS011;38819;42.692;23.342;2023-07-31T08:08:34;6.05;;;3.35;;
52956;SDS011;38819;42.692;23.342;2023-07-31T08:11:00;3.63;;;3.33;;
52956;SDS011;38819;42.692;23.342;2023-07-31T08:13:25;3.55;;;3.25;;
52956;SDS011;38819;42.692;23.342;2023-07-31T08:15:51;6.68;;;3.80;;
52956;SDS011;38819;42.692;23.342;2023-07-31T08:18:16;11.68;;;3.38;;
52956;SDS011;38819;42.692;23.342;2023-07-31T08:20:42;4.93;;;3.10;;
52956;SDS011;38819;42.692;23.342;2023-07-31T08:23:09;3.35;;;3.05;;
52956;SDS011;38819;42.692;23.342;2023-07-31T08:25:35;3.03;;;2.83;;
52956;SDS011;38819;42.692;23.342;2023-07-31T08:28:01;4.95;;;3.30;;
52956;SDS011;38819;42.692;23.342;2023-07-31T08:30:27;3.90;;;3.50;;
52956;SDS011;38819;42.692;23.342;2023-07-31T08:32:52;3.42;;;2.97;;
52956;SDS011;38819;42.692;23.342;2023-07-31T08:35:18;4.90;;;3.63;;
52956;SDS011;38819;42.692;23.342;2023-07-31T08:37:43;4.97;;;3.10;;
52956;SDS011;38819;42.692;23.342;2023-07-31T08:40:09;4.60;;;3.05;;
52956;SDS011;38819;42.692;23.342;2023-07-31T08:42:42;3.40;;;3.10;;
52956;SDS011;38819;42.692;23.342;2023-07-31T08:45:08;8.48;;;3.05;;
52956;SDS011;38819;42.692;23.342;2023-07-31T08:47:34;5.50;;;3.45;;
52956;SDS011;38819;42.692;23.342;2023-07-31T08:50:00;3.08;;;2.58;;
52956;SDS011;38819;42.692;23.342;2023-07-31T08:52:26;3.83;;;2.90;;
52956;SDS011;38819;42.692;23.342;2023-07-31T08:54:52;5.90;;;3.30;;
52956;SDS011;38819;42.692;23.342;2023-07-31T08:57:17;3.17;;;2.97;;
52956;SDS011;38819;42.692;23.342;2023-07-31T08:59:43;3.15;;;2.95;;
52956;SDS011;38819;42.692;23.342;2023-07-31T09:02:10;2.97;;;2.78;;
52956;SDS011;38819;42.692;23.342;2023-07-31T09:04:38;3.20;;;2.90;;
52956;SDS011;38819;42.692;23.342;2023-07-31T09:07:05;3.75;;;3.13;;
52956;SDS011;38819;42.692;23.342;2023-07-31T09:09:31;6.68;;;2.97;;
52956;SDS011;38819;42.692;23.342;2023-07-31T09:11:57;4.68;;;4.18;;
52956;SDS011;38819;42.692;23.342;2023-07-31T09:14:27;3.85;;;3.33;;
52956;SDS011;38819;42.692;23.342;2023-07-31T09:16:56;3.50;;;3.03;;
52956;SDS011;38819;42.692;23.342;2023-07-31T09:19:34;4.10;;;3.40;;
52956;SDS011;38819;42.692;23.342;2023-07-31T09:22:02;4.30;;;3.40;;
52956;SDS011;38819;42.692;23.342;2023-07-31T09:24:29;5.15;;;3.03;;
52956;SDS011;38819;42.692;23.342;2023-07-31T09:26:58;6.65;;;6.00;;
52956;SDS011;38819;42.692;23.342;2023-07-31T09:29:25;9.50;;;2.90;;
52956;SDS011;38819;42.692;23.342;2023-07-31T09:31:51;4.43;;;3.90;;
52956;SDS011;38819;42.692;23.342;2023-07-31T09:34:18;7.50;;;3.22;;
52956;SDS011;38819;42.692;23.342;2023-07-31T09:36:48;7.33;;;3.60;;
52956;SDS011;38819;42.692;23.342;2023-07-31T09:39:15;7.20;;;3.80;;
52956;SDS011;38819;42.692;23.342;2023-07-31T09:41:43;4.72;;;3.30;;
52956;SDS011;38819;42.692;23.342;2023-07-31T09:44:10;4.45;;;2.90;;
52956;SDS011;38819;42.692;23.342;2023-07-31T09:46:36;3.65;;;2.80;;
52956;SDS011;38819;42.692;23.342;2023-07-31T09:49:12;3.83;;;2.72;;
52956;SDS011;38819;42.692;23.342;2023-07-31T09:51:39;6.40;;;2.80;;
52956;SDS011;38819;42.692;23.342;2023-07-31T09:54:16;9.05;;;3.00;;
52956;SDS011;38819;42.692;23.342;2023-07-31T09:56:42;2.63;;;2.42;;
52956;SDS011;38819;42.692;23.342;2023-07-31T09:59:13;2.17;;;2.00;;
52956;SDS011;38819;42.692;23.342;2023-07-31T10:01:45;6.10;;;2.60;;
52956;SDS011;38819;42.692;23.342;2023-07-31T10:04:12;4.43;;;2.28;;
52956;SDS011;38819;42.692;23.342;2023-07-31T10:06:38;3.47;;;2.20;;
52956;SDS011;38819;42.692;23.342;2023-07-31T10:09:05;3.90;;;2.55;;
52956;SDS011;38819;42.692;23.342;2023-07-31T10:14:08;2.05;;;1.85;;
52956;SDS011;38819;42.692;23.342;2023-07-31T10:16:37;8.18;;;2.50;;
52956;SDS011;38819;42.692;23.342;2023-07-31T10:19:04;2.63;;;2.40;;
52956;SDS011;38819;42.692;23.342;2023-07-31T10:21:31;5.68;;;2.65;;
52956;SDS011;38819;42.692;23.342;2023-07-31T10:24:00;5.72;;;2.15;;
52956;SDS011;38819;42.692;23.342;2023-07-31T10:26:31;3.10;;;2.15;;
52956;SDS011;38819;42.692;23.342;2023-07-31T10:28:58;4.55;;;2.35;;
52956;SDS011;38819;42.692;23.342;2023-07-31T10:31:24;3.90;;;2.37;;
52956;SDS011;38819;42.692;23.342;2023-07-31T10:36:18;1.77;;;1.67;;
52956;SDS011;38819;42.692;23.342;2023-07-31T10:38:45;7.25;;;2.00;;
52956;SDS011;38819;42.692;23.342;2023-07-31T10:41:13;3.72;;;2.40;;
52956;SDS011;38819;42.692;23.342;2023-07-31T10:43:39;10.85;;;1.90;;
52956;SDS011;38819;42.692;23.342;2023-07-31T10:46:08;4.78;;;2.42;;
52956;SDS011;38819;42.692;23.342;2023-07-31T10:48:37;4.18;;;2.55;;
52956;SDS011;38819;42.692;23.342;2023-07-31T10:51:09;2.15;;;1.95;;
52956;SDS011;38819;42.692;23.342;2023-07-31T10:53:36;2.50;;;2.03;;
52956;SDS011;38819;42.692;23.342;2023-07-31T10:56:06;3.97;;;1.98;;
52956;SDS011;38819;42.692;23.342;2023-07-31T10:58:32;3.65;;;3.35;;
52956;SDS011;38819;42.692;23.342;2023-07-31T11:00:59;1.65;;;1.55;;
52956;SDS011;38819;42.692;23.342;2023-07-31T11:06:35;1.67;;;1.58;;
52956;SDS011;38819;42.692;23.342;2023-07-31T11:09:01;1.60;;;1.50;;
52956;SDS011;38819;42.692;23.342;2023-07-31T11:11:27;5.50;;;3.25;;
52956;SDS011;38819;42.692;23.342;2023-07-31T11:13:53;6.07;;;2.00;;
52956;SDS011;38819;42.692;23.342;2023-07-31T11:16:20;3.47;;;2.00;;
52956;SDS011;38819;42.692;23.342;2023-07-31T11:18:47;2.03;;;1.88;;
52956;SDS011;38819;42.692;23.342;2023-07-31T11:23:40;1.73;;;1.43;;
52956;SDS011;38819;42.692;23.342;2023-07-31T11:26:06;5.53;;;1.83;;
52956;SDS011;38819;42.692;23.342;2023-07-31T11:28:33;3.00;;;1.85;;
52956;SDS011;38819;42.692;23.342;2023-07-31T11:30:59;2.38;;;2.17;;
52956;SDS011;38819;42.692;23.342;2023-07-31T11:33:26;4.95;;;1.67;;
52956;SDS011;38819;42.692;23.342;2023-07-31T11:35:51;5.70;;;1.83;;
52956;SDS011;38819;42.692;23.342;2023-07-31T11:40:49;2.45;;;1.95;;
52956;SDS011;38819;42.692;23.342;2023-07-31T11:43:15;6.07;;;1.90;;
52956;SDS011;38819;42.692;23.342;2023-07-31T11:45:47;5.07;;;2.50;;
52956;SDS011;38819;42.692;23.342;2023-07-31T11:48:33;2.92;;;2.72;;
52956;SDS011;38819;42.692;23.342;2023-07-31T11:51:02;3.47;;;2.00;;
52956;SDS011;38819;42.692;23.342;2023-07-31T11:53:38;3.25;;;1.98;;
52956;SDS011;38819;42.692;23.342;2023-07-31T11:56:17;3.78;;;2.00;;
52956;SDS011;38819;42.692;23.342;2023-07-31T11:58:44;4.35;;;2.78;;
52956;SDS011;38819;42.692;23.342;2023-07-31T12:01:17;3.95;;;2.45;;
52956;SDS011;38819;42.692;23.342;2023-07-31T12:03:45;4.72;;;2.28;;
52956;SDS011;38819;42.692;23.342;2023-07-31T12:06:11;2.95;;;2.00;;
52956;SDS011;38819;42.692;23.342;2023-07-31T12:08:37;3.65;;;3.35;;
52956;SDS011;38819;42.692;23.342;2023-07-31T12:11:06;3.10;;;2.88;;
52956;SDS011;38819;42.692;23.342;2023-07-31T12:13:34;3.25;;;2.83;;
52956;SDS011;38819;42.692;23.342;2023-07-31T12:16:00;3.45;;;2.72;;
52956;SDS011;38819;42.692;23.342;2023-07-31T12:18:29;5.13;;;3.53;;
52956;SDS011;38819;42.692;23.342;2023-07-31T12:23:22;3.90;;;3.35;;
52956;SDS011;38819;42.692;23.342;2023-07-31T12:26:15;4.93;;;3.60;;
52956;SDS011;38819;42.692;23.342;2023-07-31T12:31:11;5.20;;;4.40;;
52956;SDS011;38819;42.692;23.342;2023-07-31T12:33:42;5.32;;;4.20;;
52956;SDS011;38819;42.692;23.342;2023-07-31T12:36:09;4.33;;;4.03;;
52956;SDS011;38819;42.692;23.342;2023-07-31T12:38:36;4.15;;;3.85;;
52956;SDS011;38819;42.692;23.342;2023-07-31T12:41:02;4.45;;;4.05;;
52956;SDS011;38819;42.692;23.342;2023-07-31T12:43:27;5.82;;;3.80;;
52956;SDS011;38819;42.692;23.342;2023-07-31T12:45:56;4.50;;;4.10;;
52956;SDS011;38819;42.692;23.342;2023-07-31T12:48:21;4.97;;;4.20;;
52956;SDS011;38819;42.692;23.342;2023-07-31T12:50:47;4.90;;;4.50;;
52956;SDS011;38819;42.692;23.342;2023-07-31T12:53:14;6.10;;;4.65;;
52956;SDS011;38819;42.692;23.342;2023-07-31T12:55:40;4.85;;;4.45;;
52956;SDS011;38819;42.692;23.342;2023-07-31T12:58:06;4.75;;;4.32;;
52956;SDS011;38819;42.692;23.342;2023-07-31T13:00:31;5.95;;;4.50;;
52956;SDS011;38819;42.692;23.342;2023-07-31T13:02:57;5.47;;;4.63;;
52956;SDS011;38819;42.692;23.342;2023-07-31T13:05:22;7.88;;;5.28;;
52956;SDS011;38819;42.692;23.342;2023-07-31T13:07:48;5.70;;;4.47;;
52956;SDS011;38819;42.692;23.342;2023-07-31T13:10:13;5.50;;;4.72;;
52956;SDS011;38819;42.692;23.342;2023-07-31T13:12:39;5.13;;;4.72;;
52956;SDS011;38819;42.692;23.342;2023-07-31T13:15:05;5.25;;;4.75;;
52956;SDS011;38819;42.692;23.342;2023-07-31T13:17:31;5.35;;;4.95;;
52956;SDS011;38819;42.692;23.342;2023-07-31T13:19:57;4.95;;;4.63;;
52956;SDS011;38819;42.692;23.342;2023-07-31T13:22:22;6.15;;;4.40;;
52956;SDS011;38819;42.692;23.342;2023-07-31T13:24:48;4.80;;;4.40;;
52956;SDS011;38819;42.692;23.342;2023-07-31T13:27:13;7.70;;;5.05;;
52956;SDS011;38819;42.692;23.342;2023-07-31T13:29:43;11.27;;;4.60;;
52956;SDS011;38819;42.692;23.342;2023-07-31T13:32:08;11.27;;;3.97;;
52956;SDS011;38819;42.692;23.342;2023-07-31T13:34:34;5.53;;;4.22;;
52956;SDS011;38819;42.692;23.342;2023-07-31T13:37:00;7.78;;;4.15;;
52956;SDS011;38819;42.692;23.342;2023-07-31T13:39:25;3.88;;;3.58;;
52956;SDS011;38819;42.692;23.342;2023-07-31T13:41:50;4.65;;;3.90;;
52956;SDS011;38819;42.692;23.342;2023-07-31T13:44:16;3.97;;;3.67;;
52956;SDS011;38819;42.692;23.342;2023-07-31T13:46:41;7.72;;;4.30;;
52956;SDS011;38819;42.692;23.342;2023-07-31T13:49:07;5.95;;;4.05;;
52956;SDS011;38819;42.692;23.342;2023-07-31T13:51:32;4.00;;;3.70;;
52956;SDS011;38819;42.692;23.342;2023-07-31T13:53:57;4.63;;;4.10;;
52956;SDS011;38819;42.692;23.342;2023-07-31T13:56:23;7.88;;;3.30;;
52956;SDS011;38819;42.692;23.342;2023-07-31T13:58:48;3.60;;;3.30;;
52956;SDS011;38819;42.692;23.342;2023-07-31T14:01:14;3.42;;;3.13;;
52956;SDS011;38819;42.692;23.342;2023-07-31T14:03:39;5.72;;;4.15;;
52956;SDS011;38819;42.692;23.342;2023-07-31T14:06:05;7.55;;;4.03;;
52956;SDS011;38819;42.692;23.342;2023-07-31T14:08:30;6.43;;;3.30;;
52956;SDS011;38819;42.692;23.342;2023-07-31T14:10:56;4.50;;;3.25;;
52956;SDS011;38819;42.692;23.342;2023-07-31T14:13:21;3.50;;;3.28;;
52956;SDS011;38819;42.692;23.342;2023-07-31T14:15:47;4.00;;;3.70;;
52956;SDS011;38819;42.692;23.342;2023-07-31T14:18:13;3.95;;;3.65;;
52956;SDS011;38819;42.692;23.342;2023-07-31T14:20:38;3.80;;;3.38;;
52956;SDS011;38819;42.692;23.342;2023-07-31T14:23:04;4.05;;;3.35;;
52956;SDS011;38819;42.692;23.342;2023-07-31T14:25:31;4.63;;;3.67;;
52956;SDS011;38819;42.692;23.342;2023-07-31T14:27:57;4.05;;;3.30;;
52956;SDS011;38819;42.692;23.342;2023-07-31T14:30:22;5.60;;;3.40;;
52956;SDS011;38819;42.692;23.342;2023-07-31T14:32:48;3.83;;;3.15;;
52956;SDS011;38819;42.692;23.342;2023-07-31T14:35:13;3.92;;;3.17;;
52956;SDS011;38819;42.692;23.342;2023-07-31T14:37:39;8.90;;;3.17;;
52956;SDS011;38819;42.692;23.342;2023-07-31T14:40:10;4.90;;;3.90;;
52956;SDS011;38819;42.692;23.342;2023-07-31T14:42:37;5.10;;;3.67;;
52956;SDS011;38819;42.692;23.342;2023-07-31T14:45:03;5.45;;;3.40;;
52956;SDS011;38819;42.692;23.342;2023-07-31T14:47:30;3.78;;;3.15;;
52956;SDS011;38819;42.692;23.342;2023-07-31T14:49:58;6.63;;;3.30;;
52956;SDS011;38819;42.692;23.342;2023-07-31T14:52:25;6.50;;;3.03;;
52956;SDS011;38819;42.692;23.342;2023-07-31T14:54:50;3.00;;;2.80;;